Time;durP1;ratioP1;P1;durP2;ratioP2;P2;SDS_P1;SDS_P2;PMS_P1;PMS_P2;Temp;Humidity;BMP_temperature;BMP_pressure;BME280_temperature;BME280_humidity;BME280_pressure;Samples;Min_cycle;Max_cycle;Signal;HPM_P1;HPM_P2
2023/08/04 00:00:06;;;;;;;10.68;4.30;;;;;;;17.08;73.27;100345.72;682827;28;1148;-74
2023/08/04 00:00:30;;;;;;;8.77;4.40;;;;;;;17.05;73.10;100342.22;684856;28;1061;-75
2023/08/04 00:00:53;;;;;;;9.48;4.57;;;;;;;17.06;73.08;100338.69;688010;28;1770;-74
2023/08/04 00:01:13;;;;;;;10.85;4.40;;;;;;;16.99;73.07;100333.44;687690;28;1192;-75
2023/08/04 00:01:34;;;;;;;11.02;4.43;;;;;;;17.07;73.11;100345.69;685194;28;1918;-75
2023/08/04 00:01:55;;;;;;;13.02;4.85;;;;;;;17.01;73.08;100340.50;682650;28;784;-75
2023/08/04 00:02:15;;;;;;;14.17;4.77;;;;;;;16.99;73.25;100336.06;680536;29;1228;-75
2023/08/04 00:02:38;;;;;;;17.77;4.43;;;;;;;17.10;73.11;100353.63;680112;29;1009;-75
2023/08/04 00:02:59;;;;;;;18.90;4.50;;;;;;;17.04;73.14;100343.09;685122;28;1824;-75
2023/08/04 00:03:20;;;;;;;13.70;4.38;;;;;;;17.09;73.18;100350.09;685483;28;1182;-74
2023/08/04 00:03:40;;;;;;;13.57;4.97;;;;;;;16.97;73.09;100335.22;685634;28;962;-75
2023/08/04 00:04:01;;;;;;;12.20;4.70;;;;;;;17.07;73.16;100346.59;682961;29;827;-74
2023/08/04 00:04:22;;;;;;;12.98;4.82;;;;;;;17.06;73.26;100349.22;684964;28;1174;-75
2023/08/04 00:04:45;;;;;;;12.05;4.60;;;;;;;17.06;72.81;100343.97;680270;28;1157;-74
2023/08/04 00:05:07;;;;;;;11.88;4.50;;;;;;;17.04;73.23;100345.72;682241;28;1612;-75
2023/08/04 00:05:28;;;;;;;10.70;4.50;;;;;;;17.05;73.30;100343.09;682842;29;1199;-75
2023/08/04 00:05:48;;;;;;;9.55;4.40;;;;;;;17.04;73.26;100335.19;682692;29;1056;-74
2023/08/04 00:06:10;;;;;;;9.32;4.38;;;;;;;17.06;73.14;100349.22;682976;28;1687;-74
2023/08/04 00:06:30;;;;;;;9.30;4.43;;;;;;;17.05;73.19;100348.38;680109;28;1264;-74
2023/08/04 00:06:51;;;;;;;11.03;4.53;;;;;;;17.07;73.15;100351.88;680496;29;1273;-74
2023/08/04 00:07:12;;;;;;;11.05;4.40;;;;;;;17.05;73.20;100351.00;681996;28;1056;-74
2023/08/04 00:07:33;;;;;;;13.32;4.32;;;;;;;17.16;73.05;100361.50;682990;28;1009;-74
2023/08/04 00:07:54;;;;;;;12.20;4.50;;;;;;;17.17;73.11;100357.97;686129;28;823;-74
2023/08/04 00:08:15;;;;;;;14.38;5.00;;;;;;;17.06;73.00;100343.97;688083;28;1263;-74
2023/08/04 00:08:36;;;;;;;12.18;5.03;;;;;;;17.18;73.03;100357.06;685242;28;1298;-75
2023/08/04 00:08:57;;;;;;;10.10;5.03;;;;;;;17.10;73.14;100353.63;690986;28;1197;-75
2023/08/04 00:09:18;;;;;;;13.27;4.70;;;;;;;17.15;73.14;100354.44;686366;28;1221;-74
2023/08/04 00:09:38;;;;;;;14.27;4.95;;;;;;;17.16;73.00;100352.69;690684;28;1075;-74
2023/08/04 00:09:59;;;;;;;15.25;4.80;;;;;;;17.18;72.88;100358.81;686897;28;878;-75
2023/08/04 00:10:20;;;;;;;12.15;4.70;;;;;;;17.17;72.84;100351.81;681610;28;1030;-75
2023/08/04 00:10:41;;;;;;;13.15;4.75;;;;;;;17.16;72.92;100347.41;682777;28;1779;-75
2023/08/04 00:11:03;;;;;;;14.52;4.93;;;;;;;17.27;73.01;100369.34;683124;28;775;-74
2023/08/04 00:11:23;;;;;;;15.30;5.30;;;;;;;17.28;72.62;100372.88;684795;28;1190;-75
2023/08/04 00:11:44;;;;;;;12.95;5.10;;;;;;;17.26;73.10;100364.97;685414;28;2089;-74
2023/08/04 00:12:05;;;;;;;10.07;5.05;;;;;;;17.20;72.91;100349.16;686885;28;1178;-75
2023/08/04 00:12:26;;;;;;;13.23;4.80;;;;;;;17.24;72.86;100357.09;684279;28;1844;-74
2023/08/04 00:12:47;;;;;;;13.98;5.20;;;;;;;17.22;72.77;100358.81;688178;28;1435;-73
2023/08/04 00:13:08;;;;;;;13.70;5.10;;;;;;;17.21;72.82;100349.16;691311;28;1348;-74
2023/08/04 00:13:30;;;;;;;10.87;5.33;;;;;;;17.20;72.89;100347.38;688288;28;1039;-74
2023/08/04 00:13:51;;;;;;;16.25;5.13;;;;;;;17.22;72.77;100347.41;688025;28;1819;-75
2023/08/04 00:14:13;;;;;;;16.63;4.90;;;;;;;17.24;72.76;100354.44;688231;28;1147;-75
2023/08/04 00:14:34;;;;;;;15.02;4.50;;;;;;;17.24;72.77;100353.56;687972;28;1064;-75
2023/08/04 00:14:55;;;;;;;7.70;4.30;;;;;;;17.19;72.81;100344.75;690010;28;1418;-74
2023/08/04 00:15:15;;;;;;;7.40;4.30;;;;;;;17.32;72.58;100366.72;690895;28;1074;-75
2023/08/04 00:15:36;;;;;;;7.40;4.40;;;;;;;17.26;72.93;100352.66;690395;28;1082;-74
2023/08/04 00:16:08;;;;;;;8.10;4.50;;;;;;;17.23;72.80;100357.06;688560;28;1343;-74
2023/08/04 00:16:28;;;;;;;9.50;4.75;;;;;;;17.24;72.71;100354.44;687737;28;1414;-75
2023/08/04 00:16:49;;;;;;;10.70;5.00;;;;;;;17.30;72.52;100364.06;686393;28;1000;-74
2023/08/04 00:17:10;;;;;;;9.80;4.80;;;;;;;17.21;72.82;100349.16;687071;28;2019;-74
2023/08/04 00:17:33;;;;;;;11.38;4.75;;;;;;;17.21;72.65;100348.28;685173;28;1213;-74
2023/08/04 00:17:54;;;;;;;11.15;4.80;;;;;;;17.28;72.81;100359.69;682283;28;1367;-75
2023/08/04 00:18:14;;;;;;;11.90;5.00;;;;;;;17.26;72.80;100352.66;684356;28;1512;-74
2023/08/04 00:18:36;;;;;;;12.60;4.80;;;;;;;17.27;72.73;100353.53;682510;28;1123;-75
2023/08/04 00:18:57;;;;;;;13.98;4.93;;;;;;;17.26;72.64;100350.03;682939;28;1838;-75
2023/08/04 00:19:17;;;;;;;13.73;4.93;;;;;;;17.30;72.69;100352.63;686019;28;1692;-74
2023/08/04 00:19:39;;;;;;;10.63;4.70;;;;;;;17.26;72.41;100352.66;690624;28;1086;-74
2023/08/04 00:19:59;;;;;;;10.80;4.90;;;;;;;17.25;72.59;100352.66;688309;28;1252;-74
2023/08/04 00:20:20;;;;;;;10.13;4.60;;;;;;;17.38;72.80;100366.63;690838;28;1304;-74
2023/08/04 00:20:41;;;;;;;12.48;5.03;;;;;;;17.33;72.58;100353.50;686246;28;1424;-75
2023/08/04 00:21:05;;;;;;;13.90;4.80;;;;;;;17.35;72.35;100356.13;683011;28;1026;-74
2023/08/04 00:21:26;;;;;;;14.30;5.00;;;;;;;17.35;72.41;100349.09;682269;28;1967;-74
2023/08/04 00:21:46;;;;;;;13.52;4.90;;;;;;;17.36;72.31;100350.84;686503;28;1048;-74
2023/08/04 00:22:07;;;;;;;12.07;5.28;;;;;;;17.34;72.32;100351.75;691039;28;988;-74
2023/08/04 00:22:28;;;;;;;11.85;5.50;;;;;;;17.41;72.25;100358.72;684734;28;1153;-74
2023/08/04 00:22:49;;;;;;;10.93;5.60;;;;;;;17.40;72.38;100363.09;677440;29;1255;-73
2023/08/04 00:23:09;;;;;;;11.15;5.43;;;;;;;17.32;72.39;100346.47;688212;28;1103;-74
2023/08/04 00:23:30;;;;;;;9.65;5.10;;;;;;;17.39;72.34;100355.19;689971;28;1013;-74
2023/08/04 00:23:57;;;;;;;9.02;4.88;;;;;;;17.45;72.33;100362.22;688250;28;1945;-74
2023/08/04 00:24:18;;;;;;;10.68;4.75;;;;;;;17.34;72.24;100343.81;687927;28;1165;-74
2023/08/04 00:24:38;;;;;;;12.52;4.90;;;;;;;17.38;72.57;100356.09;688022;28;1091;-74
2023/08/04 00:24:59;;;;;;;11.17;4.83;;;;;;;17.42;72.49;100360.47;684274;28;1824;-74
2023/08/04 00:25:20;;;;;;;11.57;4.72;;;;;;;17.36;72.39;100348.22;679641;29;1203;-73
2023/08/04 00:25:41;;;;;;;11.98;5.00;;;;;;;17.38;72.36;100351.69;680405;29;1108;-74
2023/08/04 00:26:01;;;;;;;10.33;4.90;;;;;;;17.34;72.36;100346.47;685577;28;1242;-74
2023/08/04 00:26:22;;;;;;;15.50;5.18;;;;;;;17.39;72.36;100352.56;686939;28;1266;-75
2023/08/04 00:26:42;;;;;;;12.65;4.82;;;;;;;17.38;72.40;100353.44;679963;28;1326;-74
2023/08/04 00:27:03;;;;;;;13.33;5.00;;;;;;;17.35;72.43;100345.56;684506;28;1177;-74
2023/08/04 00:27:24;;;;;;;8.82;4.80;;;;;;;17.39;72.44;100357.84;683257;28;1229;-74
2023/08/04 00:27:45;;;;;;;9.27;4.68;;;;;;;17.35;72.35;100353.50;685407;28;1041;-74
2023/08/04 00:28:05;;;;;;;10.77;4.75;;;;;;;17.42;72.42;100363.09;679977;28;1013;-74
2023/08/04 00:28:27;;;;;;;10.27;4.70;;;;;;;17.34;72.48;100339.41;685275;28;1103;-74
2023/08/04 00:28:47;;;;;;;10.50;4.80;;;;;;;17.34;72.52;100341.19;687029;28;1336;-74
2023/08/04 00:29:09;;;;;;;9.82;4.65;;;;;;;17.41;72.47;100356.09;687009;28;1755;-74
2023/08/04 00:29:30;;;;;;;13.70;5.10;;;;;;;17.43;72.55;100366.59;685676;28;1250;-75
2023/08/04 00:29:50;;;;;;;13.50;5.00;;;;;;;17.33;72.44;100348.22;687055;28;945;-74
2023/08/04 00:30:11;;;;;;;13.32;5.00;;;;;;;17.38;72.21;100350.81;679910;29;1136;-74
2023/08/04 00:30:32;;;;;;;14.23;4.80;;;;;;;17.34;72.49;100349.97;685081;28;1567;-74
2023/08/04 00:30:53;;;;;;;14.95;5.00;;;;;;;17.35;72.48;100359.66;685501;28;799;-74
2023/08/04 00:31:14;;;;;;;13.03;5.20;;;;;;;17.33;72.41;100350.00;690010;28;1302;-73
2023/08/04 00:31:34;;;;;;;11.02;5.30;;;;;;;17.34;72.46;100363.16;687873;28;1094;-75
2023/08/04 00:32:05;;;;;;;9.88;5.07;;;;;;;17.36;72.37;100349.97;687296;28;1916;-74
2023/08/04 00:32:27;;;;;;;11.35;4.78;;;;;;;17.36;72.51;100352.59;684456;28;1083;-74
2023/08/04 00:32:48;;;;;;;11.50;4.97;;;;;;;17.37;72.50;100356.97;690577;28;1399;-74
2023/08/04 00:33:09;;;;;;;12.27;4.78;;;;;;;17.33;72.46;100363.19;690657;28;1047;-74
2023/08/04 00:33:30;;;;;;;11.63;4.97;;;;;;;17.29;72.37;100351.78;682188;28;1943;-74
2023/08/04 00:33:51;;;;;;;13.03;4.90;;;;;;;17.25;72.46;100345.66;680431;28;1054;-75
2023/08/04 00:34:14;;;;;;;11.18;4.88;;;;;;;17.31;72.54;100359.66;685100;28;1849;-74
2023/08/04 00:34:35;;;;;;;8.23;4.53;;;;;;;17.27;72.58;100356.16;683708;28;2016;-74
2023/08/04 00:34:56;;;;;;;8.57;4.70;;;;;;;17.30;72.64;100350.88;687045;28;1125;-74
2023/08/04 00:35:17;;;;;;;12.00;5.18;;;;;;;17.33;72.58;100352.63;682442;28;1220;-74
2023/08/04 00:35:38;;;;;;;16.45;5.57;;;;;;;17.32;72.41;100358.78;681767;29;1671;-74
2023/08/04 00:35:59;;;;;;;16.08;5.32;;;;;;;17.29;72.54;100351.78;682781;28;1465;-74
2023/08/04 00:36:19;;;;;;;14.03;5.20;;;;;;;17.33;72.54;100361.41;687587;28;1054;-75
2023/08/04 00:36:40;;;;;;;11.40;4.93;;;;;;;17.30;72.54;100357.91;685783;28;971;-74
2023/08/04 00:37:00;;;;;;;11.23;5.03;;;;;;;17.32;72.56;100356.16;688193;28;818;-74
2023/08/04 00:37:21;;;;;;;11.67;5.13;;;;;;;17.32;72.59;100357.00;685112;28;1191;-74
2023/08/04 00:37:44;;;;;;;10.23;5.30;;;;;;;17.30;72.53;100360.53;685796;28;1836;-74
2023/08/04 00:38:05;;;;;;;10.40;5.33;;;;;;;17.38;72.55;100366.63;682668;29;1277;-74
2023/08/04 00:38:26;;;;;;;10.13;5.00;;;;;;;17.32;72.69;100357.00;683206;28;1037;-74
2023/08/04 00:38:47;;;;;;;9.43;4.90;;;;;;;17.33;72.68;100361.41;681876;29;1395;-74
2023/08/04 00:39:08;;;;;;;9.38;4.93;;;;;;;17.32;72.65;100362.28;680885;29;1032;-74
2023/08/04 00:39:29;;;;;;;9.48;5.07;;;;;;;17.34;72.59;100370.19;677760;29;1083;-74
2023/08/04 00:39:50;;;;;;;10.40;5.40;;;;;;;17.31;72.48;100357.91;682774;28;1591;-74
2023/08/04 00:40:11;;;;;;;10.85;5.60;;;;;;;17.25;72.42;100356.19;688132;28;1029;-74
2023/08/04 00:40:32;;;;;;;10.70;5.60;;;;;;;17.24;72.50;100354.44;687482;28;1594;-73
2023/08/04 00:40:53;;;;;;;9.88;5.22;;;;;;;17.36;72.81;100378.97;687353;28;1306;-73
2023/08/04 00:41:14;;;;;;;12.40;5.10;;;;;;;17.25;72.71;100360.56;686905;28;2043;-74
2023/08/04 00:41:34;;;;;;;11.70;4.88;;;;;;;17.29;72.61;100367.59;687230;28;1920;-74
2023/08/04 00:41:56;;;;;;;12.05;5.00;;;;;;;17.29;72.68;100366.72;687803;28;1331;-74
2023/08/04 00:42:17;;;;;;;10.00;4.80;;;;;;;17.34;72.60;100378.97;687762;28;1656;-74
2023/08/04 00:42:38;;;;;;;11.30;5.00;;;;;;;17.31;72.71;100378.09;687884;28;1019;-74
2023/08/04 00:43:00;;;;;;;11.13;5.30;;;;;;;17.28;72.51;100365.84;685475;28;880;-74
2023/08/04 00:43:21;;;;;;;11.52;5.30;;;;;;;17.31;72.63;100375.47;682274;28;1088;-74
2023/08/04 00:43:42;;;;;;;14.60;5.30;;;;;;;17.29;72.47;100367.59;685842;28;1248;-74
2023/08/04 00:44:02;;;;;;;15.20;5.20;;;;;;;17.34;72.47;100381.59;685410;28;909;-74
2023/08/04 00:44:23;;;;;;;15.18;5.30;;;;;;;17.40;72.47;100388.63;688232;28;1253;-73
2023/08/04 00:44:44;;;;;;;11.40;5.10;;;;;;;17.36;72.39;100379.84;685497;28;1163;-74
2023/08/04 00:45:05;;;;;;;11.20;5.00;;;;;;;17.36;72.45;100381.59;685374;28;1374;-74
2023/08/04 00:45:30;;;;;;;8.88;4.80;;;;;;;17.30;72.54;100368.44;687927;28;1320;-74
2023/08/04 00:45:52;;;;;;;10.07;5.03;;;;;;;17.30;72.43;100371.09;687515;28;977;-74
2023/08/04 00:46:12;;;;;;;11.10;5.10;;;;;;;17.31;72.45;100372.84;683021;28;1232;-74
2023/08/04 00:46:34;;;;;;;10.23;5.10;;;;;;;17.28;72.42;100370.22;682347;28;1105;-74
2023/08/04 00:46:56;;;;;;;9.80;4.70;;;;;;;17.25;72.46;100366.75;682938;28;863;-74
2023/08/04 00:47:18;;;;;;;9.80;4.82;;;;;;;17.31;72.50;100375.47;690310;28;1512;-73
2023/08/04 00:47:39;;;;;;;13.48;4.90;;;;;;;17.27;72.55;100379.88;685427;28;1613;-73
2023/08/04 00:48:00;;;;;;;14.10;4.97;;;;;;;17.22;72.60;100372.00;688101;28;1476;-74
2023/08/04 00:48:21;;;;;;;13.63;5.22;;;;;;;17.26;72.59;100378.16;687954;28;1150;-75
2023/08/04 00:48:42;;;;;;;14.27;5.53;;;;;;;17.25;72.69;100374.66;685231;28;1085;-74
2023/08/04 00:49:05;;;;;;;13.23;5.60;;;;;;;17.30;72.55;100381.63;690654;28;1928;-73
2023/08/04 00:49:26;;;;;;;12.48;5.40;;;;;;;17.20;72.54;100363.22;687407;28;1541;-74
2023/08/04 00:49:48;;;;;;;11.70;5.70;;;;;;;17.25;72.67;100371.13;686636;28;1536;-74
2023/08/04 00:50:09;;;;;;;11.90;5.75;;;;;;;17.26;72.67;100379.03;685731;28;1021;-74
2023/08/04 00:50:31;;;;;;;14.75;5.75;;;;;;;17.22;72.56;100366.75;687734;28;1390;-73
2023/08/04 00:50:52;;;;;;;13.40;5.75;;;;;;;17.19;72.63;100372.00;689798;28;1475;-74
2023/08/04 00:51:13;;;;;;;14.60;5.57;;;;;;;17.23;72.63;100372.91;690189;28;1125;-74
2023/08/04 00:51:35;;;;;;;11.50;5.25;;;;;;;17.26;72.61;100384.31;681892;29;1103;-74
2023/08/04 00:51:56;;;;;;;11.80;4.95;;;;;;;17.26;72.71;100384.31;682554;29;839;-73
2023/08/04 00:52:17;;;;;;;12.50;5.37;;;;;;;17.26;72.79;100378.16;683863;28;1101;-73
2023/08/04 00:52:39;;;;;;;13.85;5.78;;;;;;;17.21;72.50;100375.53;683511;28;1077;-75
2023/08/04 00:53:00;;;;;;;14.50;6.43;;;;;;;17.21;72.64;100372.91;686085;28;1240;-73
2023/08/04 00:53:21;;;;;;;14.35;6.80;;;;;;;17.19;72.71;100369.38;685185;28;1095;-73
2023/08/04 00:53:43;;;;;;;12.30;6.45;;;;;;;17.26;72.87;100379.03;685281;28;1045;-74
2023/08/04 00:54:04;;;;;;;9.05;6.07;;;;;;;17.26;72.73;100384.31;679997;29;1459;-75
2023/08/04 00:54:25;;;;;;;10.27;6.05;;;;;;;17.25;72.92;100385.19;684501;28;1305;-74
2023/08/04 00:54:46;;;;;;;11.68;6.55;;;;;;;17.24;72.72;100386.09;685252;28;1106;-74
2023/08/04 00:55:08;;;;;;;13.03;6.50;;;;;;;17.21;72.90;100383.44;685214;28;1934;-74
2023/08/04 00:55:29;;;;;;;11.77;6.32;;;;;;;17.29;72.99;100388.69;687721;28;1313;-74
2023/08/04 00:55:50;;;;;;;13.35;6.38;;;;;;;17.19;72.88;100377.28;686602;28;1051;-74
2023/08/04 00:56:11;;;;;;;12.02;6.20;;;;;;;17.25;72.75;100382.56;682676;28;1122;-74
2023/08/04 00:56:32;;;;;;;12.00;6.20;;;;;;;17.20;72.88;100378.16;679840;29;1208;-74
2023/08/04 00:56:54;;;;;;;10.50;6.15;;;;;;;17.24;72.87;100379.91;685384;28;890;-74
2023/08/04 00:57:14;;;;;;;11.13;6.18;;;;;;;17.21;72.76;100374.66;684811;28;2006;-74
2023/08/04 00:57:39;;;;;;;10.70;5.93;;;;;;;17.24;72.57;100386.09;682782;28;1141;-74
2023/08/04 00:58:00;;;;;;;10.63;5.95;;;;;;;17.20;73.00;100379.03;686403;28;1118;-74
2023/08/04 00:58:22;;;;;;;10.52;5.80;;;;;;;17.23;72.95;100381.66;685136;28;1142;-74
2023/08/04 00:58:43;;;;;;;11.10;5.95;;;;;;;17.23;72.77;100373.75;685215;28;1053;-74
2023/08/04 00:59:04;;;;;;;11.98;5.97;;;;;;;17.24;72.72;100380.81;686902;28;1442;-74
2023/08/04 00:59:25;;;;;;;11.80;6.05;;;;;;;17.23;72.90;100380.81;685870;28;1251;-74
2023/08/04 00:59:45;;;;;;;11.57;5.90;;;;;;;17.22;72.93;100379.06;687637;28;1172;-74
2023/08/04 01:00:07;;;;;;;10.73;5.80;;;;;;;17.20;73.00;100372.91;688051;28;940;-74
2023/08/04 01:00:28;;;;;;;12.82;5.78;;;;;;;17.24;73.12;100386.09;684429;28;1669;-73
2023/08/04 01:00:48;;;;;;;15.68;6.40;;;;;;;17.23;72.97;100379.03;686647;28;1133;-74
2023/08/04 01:01:09;;;;;;;15.50;6.77;;;;;;;17.24;73.08;100386.09;685479;28;977;-74
2023/08/04 01:01:30;;;;;;;13.80;6.78;;;;;;;17.22;73.01;100385.19;687602;28;1974;-74
2023/08/04 01:01:51;;;;;;;12.50;6.57;;;;;;;17.18;73.04;100365.00;684858;28;1325;-74
2023/08/04 01:02:11;;;;;;;13.00;6.63;;;;;;;17.21;73.00;100383.44;685194;28;1660;-74
2023/08/04 01:02:33;;;;;;;12.50;6.60;;;;;;;17.25;73.21;100385.19;681814;29;1865;-76
2023/08/04 01:02:55;;;;;;;13.10;6.80;;;;;;;17.26;73.01;100384.31;683347;28;1335;-74
2023/08/04 01:03:16;;;;;;;12.95;6.97;;;;;;;17.21;72.90;100375.53;683236;28;1095;-74
2023/08/04 01:03:40;;;;;;;12.68;7.20;;;;;;;17.28;73.07;100380.78;687945;28;1937;-74
2023/08/04 01:04:01;;;;;;;11.85;7.00;;;;;;;17.30;72.97;100385.16;686442;28;850;-74
2023/08/04 01:04:21;;;;;;;10.63;6.60;;;;;;;17.28;72.88;100383.41;683889;28;1085;-74
2023/08/04 01:04:42;;;;;;;11.30;6.70;;;;;;;17.30;72.84;100377.25;679569;28;1727;-74
2023/08/04 01:05:04;;;;;;;11.88;6.70;;;;;;;17.40;72.85;100402.69;684805;28;1326;-74
2023/08/04 01:05:34;;;;;;;15.57;6.80;;;;;;;17.33;72.64;100394.81;684351;28;1355;-74
2023/08/04 01:06:23;;;;;;;14.68;6.63;;;;;;;17.34;72.67;100386.03;685320;28;804;-75
2023/08/04 01:06:51;;;;;;;14.60;6.40;;;;;;;17.38;72.69;100399.19;688013;28;961;-74
2023/08/04 01:07:25;;;;;;;10.85;6.65;;;;;;;17.43;72.75;100396.50;686462;28;1123;-74
2023/08/04 01:07:51;;;;;;;11.50;6.80;;;;;;;17.33;72.58;100384.28;686559;28;1067;-74
2023/08/04 01:08:21;;;;;;;14.88;6.47;;;;;;;17.38;72.77;100387.75;690162;28;1475;-74
2023/08/04 01:08:53;;;;;;;17.00;6.75;;;;;;;17.35;72.61;100388.66;692892;28;1030;-74
2023/08/04 01:09:37;;;;;;;15.70;6.70;;;;;;;17.34;72.51;100375.47;697168;28;1457;-74
2023/08/04 01:10:15;;;;;;;16.80;7.05;;;;;;;17.37;72.63;100389.53;692385;28;1647;-73
2023/08/04 01:10:46;;;;;;;15.73;6.65;;;;;;;17.36;72.55;100385.13;698152;28;1102;-74
2023/08/04 01:11:14;;;;;;;14.07;6.05;;;;;;;17.32;72.66;100386.03;694573;28;1058;-74
2023/08/04 01:11:47;;;;;;;14.32;6.00;;;;;;;17.35;72.66;100388.66;687583;28;1217;-74
2023/08/04 01:12:58;;;;;;;14.05;6.35;;;;;;;17.44;72.62;100402.69;685286;28;1946;-74
2023/08/04 01:13:22;;;;;;;11.32;6.20;;;;;;;17.35;72.76;100387.78;685468;28;1245;-74
2023/08/04 01:13:44;;;;;;;12.07;5.90;;;;;;;17.36;72.68;100395.69;683977;28;1938;-73
2023/08/04 01:14:06;;;;;;;12.70;6.28;;;;;;;17.39;72.58;100389.50;688024;28;1298;-74
2023/08/04 01:14:28;;;;;;;12.05;6.40;;;;;;;17.33;72.68;100381.63;691381;28;1492;-74
2023/08/04 01:14:51;;;;;;;11.15;6.40;;;;;;;17.35;72.59;100379.84;690642;28;1090;-74
2023/08/04 01:15:14;;;;;;;10.35;6.13;;;;;;;17.39;72.63;100394.75;692462;28;1039;-74
2023/08/04 01:15:36;;;;;;;10.43;6.47;;;;;;;17.47;72.56;100406.16;686790;28;1913;-74
2023/08/04 01:15:57;;;;;;;10.35;6.18;;;;;;;17.40;72.48;100396.53;685380;28;787;-74
2023/08/04 01:16:18;;;;;;;10.38;5.90;;;;;;;17.43;72.41;100398.25;681683;28;2043;-74
2023/08/04 01:16:39;;;;;;;11.07;5.78;;;;;;;17.40;72.42;100393.91;687651;28;2127;-74
2023/08/04 01:17:21;;;;;;;10.13;5.83;;;;;;;17.48;72.46;100405.28;688297;28;1237;-74
2023/08/04 01:17:42;;;;;;;14.05;6.40;;;;;;;17.37;72.37;100396.53;688006;28;1618;-74
2023/08/04 01:18:02;;;;;;;17.73;6.60;;;;;;;17.44;72.45;100408.81;685237;28;1220;-75
2023/08/04 01:18:23;;;;;;;14.18;6.20;;;;;;;17.40;72.53;100402.69;684487;28;1060;-74
2023/08/04 01:18:44;;;;;;;14.80;6.10;;;;;;;17.37;72.54;100401.81;685963;28;1595;-74
2023/08/04 01:19:05;;;;;;;12.37;6.47;;;;;;;17.32;72.62;100398.34;685384;28;1083;-73
2023/08/04 01:19:25;;;;;;;12.85;6.40;;;;;;;17.37;72.61;100407.97;686553;28;1487;-74
2023/08/04 01:19:46;;;;;;;13.75;6.78;;;;;;;17.33;72.70;100397.47;690187;28;1651;-74
2023/08/04 01:20:07;;;;;;;15.98;6.60;;;;;;;17.31;72.52;100389.56;690389;28;1967;-74
2023/08/04 01:20:28;;;;;;;14.65;6.50;;;;;;;17.33;72.48;100389.56;684977;28;1115;-74
2023/08/04 01:20:50;;;;;;;12.50;5.90;;;;;;;17.34;72.78;100392.16;685177;28;1031;-74
2023/08/04 01:21:11;;;;;;;10.20;5.93;;;;;;;17.31;72.60;100392.19;685177;28;1278;-74
2023/08/04 01:21:44;;;;;;;13.50;6.00;;;;;;;17.30;72.89;100385.16;685644;28;1975;-74
2023/08/04 01:22:04;;;;;;;16.70;6.10;;;;;;;17.32;72.80;100387.81;686241;28;1450;-75
2023/08/04 01:22:25;;;;;;;14.80;6.20;;;;;;;17.35;72.61;100391.28;689901;28;1180;-74
2023/08/04 01:22:46;;;;;;;11.60;6.50;;;;;;;17.38;72.73;100399.19;690312;28;1351;-74
2023/08/04 01:23:07;;;;;;;10.10;6.57;;;;;;;17.33;72.60;100400.97;690545;28;944;-76
2023/08/04 01:23:28;;;;;;;10.98;6.80;;;;;;;17.32;72.79;100398.34;689624;28;1208;-74
2023/08/04 01:23:48;;;;;;;12.27;6.10;;;;;;;17.29;72.70;100386.06;687926;28;1115;-74
2023/08/04 01:24:10;;;;;;;15.38;6.47;;;;;;;17.29;72.60;100382.53;688228;28;967;-74
2023/08/04 01:24:30;;;;;;;15.68;6.70;;;;;;;17.32;72.58;100390.44;687656;28;1226;-74
2023/08/04 01:24:53;;;;;;;18.00;7.13;;;;;;;17.31;72.66;100386.91;687992;28;1119;-74
2023/08/04 01:25:14;;;;;;;16.27;6.80;;;;;;;17.34;72.46;100391.28;690184;28;1138;-74
2023/08/04 01:25:35;;;;;;;16.20;6.53;;;;;;;17.33;72.83;100394.81;687183;28;1070;-74
2023/08/04 01:25:56;;;;;;;14.85;6.40;;;;;;;17.32;72.51;100386.03;685249;28;1335;-74
2023/08/04 01:26:17;;;;;;;16.20;6.32;;;;;;;17.34;72.56;100396.56;681726;28;1106;-74
2023/08/04 01:26:44;;;;;;;14.02;6.10;;;;;;;17.34;72.69;100391.28;680950;28;1028;-74
2023/08/04 01:27:05;;;;;;;11.43;5.90;;;;;;;17.33;72.61;100389.56;685289;28;1090;-74
2023/08/04 01:27:37;;;;;;;12.63;6.10;;;;;;;17.32;72.60;100382.53;686183;28;1317;-74
2023/08/04 01:28:01;;;;;;;14.18;6.40;;;;;;;17.35;72.55;100393.94;688025;28;826;-74
2023/08/04 01:28:23;;;;;;;14.40;6.55;;;;;;;17.33;72.43;100385.13;691145;28;1351;-74
2023/08/04 01:28:47;;;;;;;15.35;6.40;;;;;;;17.36;72.47;100389.53;685501;28;1610;-74
2023/08/04 01:29:10;;;;;;;13.30;6.20;;;;;;;17.38;72.52;100393.00;682610;29;1036;-74
2023/08/04 01:29:31;;;;;;;12.68;6.07;;;;;;;17.38;72.57;100393.00;690305;28;1065;-74
2023/08/04 01:29:52;;;;;;;11.77;6.00;;;;;;;17.39;72.30;100389.50;685092;28;1272;-73
2023/08/04 01:30:21;;;;;;;12.95;6.00;;;;;;;17.46;72.32;100409.66;684725;28;1247;-74
2023/08/04 01:30:44;;;;;;;12.13;5.80;;;;;;;17.39;72.39;100389.50;685094;28;1044;-74
2023/08/04 01:31:05;;;;;;;12.80;6.20;;;;;;;17.37;72.38;100396.53;685531;28;1149;-73
2023/08/04 01:31:27;;;;;;;16.55;6.80;;;;;;;17.34;72.44;100383.38;687687;28;1161;-74
2023/08/04 01:31:48;;;;;;;14.82;6.55;;;;;;;17.48;72.45;100410.56;690317;28;1984;-74
2023/08/04 01:32:09;;;;;;;13.70;6.10;;;;;;;17.37;72.26;100396.53;684843;28;1010;-74
2023/08/04 01:32:30;;;;;;;11.25;5.90;;;;;;;17.44;72.25;100411.44;682465;29;1088;-74
2023/08/04 01:32:52;;;;;;;13.13;5.93;;;;;;;17.39;72.44;100402.69;679549;29;1304;-76
2023/08/04 01:33:13;;;;;;;11.65;6.20;;;;;;;17.39;72.53;100400.03;680793;28;997;-74
2023/08/04 01:33:35;;;;;;;12.93;6.30;;;;;;;17.42;72.49;100402.69;682850;28;1223;-74
2023/08/04 01:33:55;;;;;;;13.07;6.30;;;;;;;17.40;72.43;100407.09;685710;28;1377;-74
2023/08/04 01:34:16;;;;;;;15.33;6.40;;;;;;;17.40;72.41;100402.69;685099;28;1206;-74
2023/08/04 01:34:41;;;;;;;13.30;5.90;;;;;;;17.34;72.39;100391.28;683145;28;990;-74
2023/08/04 01:35:06;;;;;;;10.90;5.70;;;;;;;17.40;72.01;100401.81;685747;28;1565;-75
2023/08/04 01:35:26;;;;;;;10.57;5.82;;;;;;;17.38;72.37;100393.00;687708;28;1154;-74
2023/08/04 01:35:47;;;;;;;10.65;6.00;;;;;;;17.39;72.20;100397.41;681761;29;997;-74
2023/08/04 01:36:08;;;;;;;10.83;6.00;;;;;;;17.37;72.23;100397.44;681260;29;1047;-74
2023/08/04 01:36:28;;;;;;;10.73;5.90;;;;;;;17.40;72.49;100401.81;682201;28;1151;-74
2023/08/04 01:36:49;;;;;;;11.70;5.85;;;;;;;17.41;72.34;100393.00;685771;28;1188;-74
2023/08/04 01:37:11;;;;;;;12.30;6.28;;;;;;;17.52;72.30;100412.28;687839;28;964;-74
2023/08/04 01:37:32;;;;;;;13.23;6.40;;;;;;;17.48;72.40;100410.56;688745;28;1479;-74
2023/08/04 01:37:53;;;;;;;12.02;6.13;;;;;;;17.49;72.09;100403.50;690607;28;1178;-74
2023/08/04 01:38:14;;;;;;;13.00;6.00;;;;;;;17.48;72.14;100405.28;691222;28;1047;-74
2023/08/04 01:38:34;;;;;;;12.20;6.00;;;;;;;17.43;72.17;100395.63;686864;28;1173;-75
2023/08/04 01:38:56;;;;;;;13.70;6.10;;;;;;;17.44;72.05;100398.25;685288;28;832;-74
2023/08/04 01:39:18;;;;;;;13.60;5.80;;;;;;;17.44;72.01;100400.03;685082;28;1152;-74
2023/08/04 01:39:39;;;;;;;13.55;5.78;;;;;;;17.48;72.19;100407.03;687064;28;1992;-74
2023/08/04 01:39:59;;;;;;;11.97;5.60;;;;;;;17.46;72.15;100396.47;685240;28;1110;-75
2023/08/04 01:40:20;;;;;;;12.13;6.00;;;;;;;17.50;72.40;100413.16;690432;28;1177;-75
2023/08/04 01:40:41;;;;;;;13.55;6.03;;;;;;;17.50;72.13;100408.78;690184;28;1358;-75
2023/08/04 01:41:05;;;;;;;15.05;6.13;;;;;;;17.51;72.11;100410.53;685071;28;1636;-75
2023/08/04 01:41:26;;;;;;;21.10;6.18;;;;;;;17.43;72.16;100398.25;687475;28;1910;-75
2023/08/04 01:41:46;;;;;;;18.38;5.95;;;;;;;17.44;72.09;100400.03;685217;28;1079;-74
2023/08/04 01:42:07;;;;;;;18.80;5.50;;;;;;;17.44;72.08;100400.03;682565;28;1235;-75
2023/08/04 01:42:28;;;;;;;14.18;5.38;;;;;;;17.44;72.25;100403.53;684729;28;1162;-74
2023/08/04 01:42:49;;;;;;;12.40;5.35;;;;;;;17.43;72.19;100404.41;686536;28;2000;-74
2023/08/04 01:43:13;;;;;;;13.77;5.72;;;;;;;17.45;72.30;100405.28;693310;28;1098;-74
2023/08/04 01:43:37;;;;;;;13.85;5.75;;;;;;;17.52;72.28;100422.81;690464;28;1005;-74
2023/08/04 01:44:01;;;;;;;15.55;6.10;;;;;;;17.49;72.39;100416.69;685154;28;1165;-74
2023/08/04 01:44:22;;;;;;;11.95;5.82;;;;;;;17.43;72.30;100400.91;687176;28;2016;-74
2023/08/04 01:44:42;;;;;;;14.63;6.22;;;;;;;17.41;72.24;100390.38;687539;28;1072;-74